METAR de aeropuertos de Murcia y cercanos

 

LEAL - Alicante
Actualización: 22/07/2018 04:30
Mostly Cloudy
Mostly Cloudy
 Viento del E
Viento: E 9 km/h
Temperatura: 25°C
Rocío: 23°C
Humedad: 89%
Barómetro: 1013 hPa
Nubosidad: Mostly Cloudy
Visibilidad: 10 km
Cloud details: Few Clouds 366 m
Mostly Cloudy 762 m
2018/07/22 02:30 LEAL 220230Z 09005KT 9999 FEW012 BKN025 25/23 Q1013 NOSIG
LEAB - Albacete
Actualización: 22/07/2018 04:00
Despejado
Despejado
 Viento del SE
Viento: SE 11 km/h
Temperatura: 20°C
Rocío: 18°C
Humedad: 88%
Barómetro: 1015 hPa
Resumen: Despejado
Visibilidad: greater than 10 km
2018/07/22 02:00 LEAB 220200Z 14006KT 110V170 CAVOK 20/18 Q1015 NOSIG
LEAM - Almería
Actualización: 22/07/2018 04:30
Despejado
Despejado
 Viento del varies
Viento: varies 4 km/h
Temperatura: 23°C
Rocío: 21°C
Humedad: 89%
Barómetro: 1012 hPa
Resumen: Despejado
Visibilidad: greater than 10 km
2018/07/22 02:30 LEAM 220230Z AUTO VRB02KT CAVOK 23/21 Q1012
 
LERI - Murcia/Alcantarilla
Actualización: 21/07/2018 20:00
NO Actualizado
Despejado
Despejado
 Viento del SE
Viento: SE 22 km/h
Temperatura: 31°C
Heat Index: 32°C
Rocío: 18°C
Humedad: 46%
Barómetro: 1011 hPa
Resumen: Despejado
Visibilidad: greater than 10 km
2018/07/21 18:00 LERI 211800Z 13012KT 110V170 CAVOK 31/18 Q1011 NOSIG
LELC - Murcia/San Javier
Actualización: 22/07/2018 04:30
Partly Cloudy
Partly Cloudy
 Viento del NE
Viento: NE 15 km/h
Temperatura: 25°C
Rocío: 23°C
Humedad: 89%
Barómetro: 1012 hPa
Nubosidad: Partly Cloudy
Visibilidad: 9 km
Cloud details: Partly Cloudy 396 m
Partly Cloudy 671 m
2018/07/22 02:30 LELC 220230Z AUTO 04008KT 010V070 9000 SCT013/// SCT022/// 25/23 Q1012

La estación de MeteoMurcia.com, publica sus datos en los siguientes proyectos:

Meteoclimatic www.awekas.at

W3Counter
Web Analytics